sensor_id;sensor_type;location;lat;lon;timestamp;P1;durP1;ratioP1;P2;durP2;ratioP2
80372;SDS011;69684;48.106;11.538;2023-05-10T00:00:28;1.20;;;0.80;;
80372;SDS011;69684;48.106;11.538;2023-05-10T00:02:54;1.00;;;0.70;;
80372;SDS011;69684;48.106;11.538;2023-05-10T00:05:20;0.75;;;0.55;;
80372;SDS011;69684;48.106;11.538;2023-05-10T00:07:46;1.80;;;0.68;;
80372;SDS011;69684;48.106;11.538;2023-05-10T00:10:12;1.27;;;0.77;;
80372;SDS011;69684;48.106;11.538;2023-05-10T00:12:38;1.08;;;0.82;;
80372;SDS011;69684;48.106;11.538;2023-05-10T00:15:04;0.90;;;0.60;;
80372;SDS011;69684;48.106;11.538;2023-05-10T00:17:30;1.40;;;0.77;;
80372;SDS011;69684;48.106;11.538;2023-05-10T00:19:56;1.08;;;0.77;;
80372;SDS011;69684;48.106;11.538;2023-05-10T00:22:22;1.42;;;0.77;;
80372;SDS011;69684;48.106;11.538;2023-05-10T00:24:48;0.98;;;0.80;;
80372;SDS011;69684;48.106;11.538;2023-05-10T00:27:14;0.75;;;0.65;;
80372;SDS011;69684;48.106;11.538;2023-05-10T00:29:40;0.50;;;0.50;;
80372;SDS011;69684;48.106;11.538;2023-05-10T00:32:06;0.82;;;0.50;;
80372;SDS011;69684;48.106;11.538;2023-05-10T00:34:32;0.75;;;0.55;;
80372;SDS011;69684;48.106;11.538;2023-05-10T00:36:58;2.78;;;0.60;;
80372;SDS011;69684;48.106;11.538;2023-05-10T00:39:24;1.85;;;0.50;;
80372;SDS011;69684;48.106;11.538;2023-05-10T00:41:51;0.70;;;0.70;;
80372;SDS011;69684;48.106;11.538;2023-05-10T00:44:17;0.70;;;0.60;;
80372;SDS011;69684;48.106;11.538;2023-05-10T00:46:43;0.80;;;0.50;;
80372;SDS011;69684;48.106;11.538;2023-05-10T00:49:10;1.02;;;0.63;;
80372;SDS011;69684;48.106;11.538;2023-05-10T00:51:36;1.20;;;0.50;;
80372;SDS011;69684;48.106;11.538;2023-05-10T00:54:02;2.67;;;0.75;;
80372;SDS011;69684;48.106;11.538;2023-05-10T00:56:28;1.23;;;0.40;;
80372;SDS011;69684;48.106;11.538;2023-05-10T00:58:55;1.35;;;0.60;;
80372;SDS011;69684;48.106;11.538;2023-05-10T01:01:21;0.80;;;0.50;;
80372;SDS011;69684;48.106;11.538;2023-05-10T01:03:47;0.73;;;0.40;;
80372;SDS011;69684;48.106;11.538;2023-05-10T01:06:13;1.75;;;0.50;;
80372;SDS011;69684;48.106;11.538;2023-05-10T01:08:39;0.65;;;0.47;;
80372;SDS011;69684;48.106;11.538;2023-05-10T01:11:05;0.55;;;0.40;;
80372;SDS011;69684;48.106;11.538;2023-05-10T01:13:33;1.75;;;0.45;;
80372;SDS011;69684;48.106;11.538;2023-05-10T01:15:59;0.93;;;0.60;;
80372;SDS011;69684;48.106;11.538;2023-05-10T01:18:27;0.43;;;0.43;;
80372;SDS011;69684;48.106;11.538;2023-05-10T01:20:57;0.55;;;0.30;;
80372;SDS011;69684;48.106;11.538;2023-05-10T01:23:34;0.70;;;0.40;;
80372;SDS011;69684;48.106;11.538;2023-05-10T01:34:20;0.80;;;0.40;;
80372;SDS011;69684;48.106;11.538;2023-05-10T01:36:55;0.40;;;0.30;;
80372;SDS011;69684;48.106;11.538;2023-05-10T01:41:57;0.82;;;0.47;;
80372;SDS011;69684;48.106;11.538;2023-05-10T01:44:39;0.30;;;0.30;;
80372;SDS011;69684;48.106;11.538;2023-05-10T01:47:13;0.60;;;0.30;;
80372;SDS011;69684;48.106;11.538;2023-05-10T01:49:41;1.02;;;0.50;;
80372;SDS011;69684;48.106;11.538;2023-05-10T01:52:09;0.47;;;0.40;;
80372;SDS011;69684;48.106;11.538;2023-05-10T01:54:38;0.40;;;0.40;;
80372;SDS011;69684;48.106;11.538;2023-05-10T01:57:05;0.80;;;0.40;;
80372;SDS011;69684;48.106;11.538;2023-05-10T01:59:34;0.88;;;0.57;;
80372;SDS011;69684;48.106;11.538;2023-05-10T02:02:06;1.05;;;0.50;;
80372;SDS011;69684;48.106;11.538;2023-05-10T02:04:33;0.70;;;0.32;;
80372;SDS011;69684;48.106;11.538;2023-05-10T02:07:01;1.08;;;0.40;;
80372;SDS011;69684;48.106;11.538;2023-05-10T02:09:27;1.98;;;0.50;;
80372;SDS011;69684;48.106;11.538;2023-05-10T02:11:54;2.15;;;0.60;;
80372;SDS011;69684;48.106;11.538;2023-05-10T02:14:24;2.08;;;0.50;;
80372;SDS011;69684;48.106;11.538;2023-05-10T02:16:53;1.27;;;0.40;;
80372;SDS011;69684;48.106;11.538;2023-05-10T02:19:20;0.98;;;0.52;;
80372;SDS011;69684;48.106;11.538;2023-05-10T02:21:47;0.40;;;0.40;;
80372;SDS011;69684;48.106;11.538;2023-05-10T02:24:13;0.50;;;0.40;;
80372;SDS011;69684;48.106;11.538;2023-05-10T02:26:40;0.63;;;0.52;;
80372;SDS011;69684;48.106;11.538;2023-05-10T02:29:07;0.50;;;0.50;;
80372;SDS011;69684;48.106;11.538;2023-05-10T02:31:37;0.73;;;0.52;;
80372;SDS011;69684;48.106;11.538;2023-05-10T02:34:06;0.60;;;0.40;;
80372;SDS011;69684;48.106;11.538;2023-05-10T02:36:33;0.35;;;0.30;;
80372;SDS011;69684;48.106;11.538;2023-05-10T02:39:02;0.40;;;0.40;;
80372;SDS011;69684;48.106;11.538;2023-05-10T02:41:30;1.08;;;0.60;;
80372;SDS011;69684;48.106;11.538;2023-05-10T02:43:57;0.98;;;0.50;;
80372;SDS011;69684;48.106;11.538;2023-05-10T02:46:25;0.98;;;0.60;;
80372;SDS011;69684;48.106;11.538;2023-05-10T02:48:51;0.93;;;0.50;;
80372;SDS011;69684;48.106;11.538;2023-05-10T02:51:18;0.57;;;0.50;;
80372;SDS011;69684;48.106;11.538;2023-05-10T02:53:45;0.50;;;0.50;;
80372;SDS011;69684;48.106;11.538;2023-05-10T02:56:15;1.00;;;0.50;;
80372;SDS011;69684;48.106;11.538;2023-05-10T02:58:45;0.68;;;0.40;;
80372;SDS011;69684;48.106;11.538;2023-05-10T03:01:14;1.48;;;0.60;;
80372;SDS011;69684;48.106;11.538;2023-05-10T03:03:42;0.75;;;0.50;;
80372;SDS011;69684;48.106;11.538;2023-05-10T03:06:08;0.60;;;0.50;;
80372;SDS011;69684;48.106;11.538;2023-05-10T03:08:34;1.08;;;0.43;;
80372;SDS011;69684;48.106;11.538;2023-05-10T03:11:10;0.50;;;0.32;;
80372;SDS011;69684;48.106;11.538;2023-05-10T03:13:47;0.63;;;0.40;;
80372;SDS011;69684;48.106;11.538;2023-05-10T03:16:16;0.30;;;0.30;;
80372;SDS011;69684;48.106;11.538;2023-05-10T03:18:54;0.52;;;0.30;;
80372;SDS011;69684;48.106;11.538;2023-05-10T03:21:20;0.30;;;0.30;;
80372;SDS011;69684;48.106;11.538;2023-05-10T03:23:50;0.40;;;0.30;;
80372;SDS011;69684;48.106;11.538;2023-05-10T03:26:23;0.77;;;0.35;;
80372;SDS011;69684;48.106;11.538;2023-05-10T03:28:50;0.40;;;0.30;;
80372;SDS011;69684;48.106;11.538;2023-05-10T03:31:16;0.30;;;0.30;;
80372;SDS011;69684;48.106;11.538;2023-05-10T03:33:49;0.50;;;0.30;;
80372;SDS011;69684;48.106;11.538;2023-05-10T03:36:15;0.57;;;0.40;;
80372;SDS011;69684;48.106;11.538;2023-05-10T03:38:41;1.48;;;0.35;;
80372;SDS011;69684;48.106;11.538;2023-05-10T03:41:07;0.45;;;0.40;;
80372;SDS011;69684;48.106;11.538;2023-05-10T03:43:33;0.73;;;0.40;;
80372;SDS011;69684;48.106;11.538;2023-05-10T03:46:01;0.40;;;0.30;;
80372;SDS011;69684;48.106;11.538;2023-05-10T03:48:27;0.30;;;0.30;;
80372;SDS011;69684;48.106;11.538;2023-05-10T03:50:53;0.20;;;0.20;;
80372;SDS011;69684;48.106;11.538;2023-05-10T03:53:19;0.47;;;0.30;;
80372;SDS011;69684;48.106;11.538;2023-05-10T03:55:45;0.63;;;0.40;;
80372;SDS011;69684;48.106;11.538;2023-05-10T03:58:11;1.55;;;0.30;;
80372;SDS011;69684;48.106;11.538;2023-05-10T04:00:37;0.40;;;0.30;;
80372;SDS011;69684;48.106;11.538;2023-05-10T04:03:08;0.40;;;0.30;;
80372;SDS011;69684;48.106;11.538;2023-05-10T04:05:34;0.30;;;0.20;;
80372;SDS011;69684;48.106;11.538;2023-05-10T04:08:00;0.55;;;0.32;;
80372;SDS011;69684;48.106;11.538;2023-05-10T04:10:26;0.35;;;0.30;;
80372;SDS011;69684;48.106;11.538;2023-05-10T04:12:52;0.20;;;0.20;;
80372;SDS011;69684;48.106;11.538;2023-05-10T04:15:18;0.30;;;0.30;;
80372;SDS011;69684;48.106;11.538;2023-05-10T04:17:44;0.60;;;0.30;;
80372;SDS011;69684;48.106;11.538;2023-05-10T04:20:10;0.40;;;0.25;;
80372;SDS011;69684;48.106;11.538;2023-05-10T04:22:37;0.30;;;0.20;;
80372;SDS011;69684;48.106;11.538;2023-05-10T04:25:03;1.27;;;0.30;;
80372;SDS011;69684;48.106;11.538;2023-05-10T04:27:29;1.00;;;0.20;;
80372;SDS011;69684;48.106;11.538;2023-05-10T04:29:56;0.28;;;0.25;;
80372;SDS011;69684;48.106;11.538;2023-05-10T04:32:22;0.30;;;0.30;;
80372;SDS011;69684;48.106;11.538;2023-05-10T04:34:48;2.85;;;0.32;;
80372;SDS011;69684;48.106;11.538;2023-05-10T04:37:14;0.40;;;0.30;;
80372;SDS011;69684;48.106;11.538;2023-05-10T04:39:40;0.30;;;0.20;;
80372;SDS011;69684;48.106;11.538;2023-05-10T04:42:06;0.93;;;0.40;;
80372;SDS011;69684;48.106;11.538;2023-05-10T04:44:32;1.27;;;0.20;;
80372;SDS011;69684;48.106;11.538;2023-05-10T04:46:58;0.20;;;0.20;;
80372;SDS011;69684;48.106;11.538;2023-05-10T04:49:24;0.40;;;0.20;;
80372;SDS011;69684;48.106;11.538;2023-05-10T04:51:50;0.20;;;0.20;;
80372;SDS011;69684;48.106;11.538;2023-05-10T04:54:16;0.17;;;0.17;;
80372;SDS011;69684;48.106;11.538;2023-05-10T04:56:42;0.17;;;0.17;;
80372;SDS011;69684;48.106;11.538;2023-05-10T04:59:08;0.22;;;0.22;;
80372;SDS011;69684;48.106;11.538;2023-05-10T05:01:34;0.20;;;0.20;;
80372;SDS011;69684;48.106;11.538;2023-05-10T05:04:00;0.50;;;0.30;;
80372;SDS011;69684;48.106;11.538;2023-05-10T05:06:26;0.40;;;0.20;;
80372;SDS011;69684;48.106;11.538;2023-05-10T05:08:52;1.23;;;0.38;;
80372;SDS011;69684;48.106;11.538;2023-05-10T05:11:18;1.30;;;0.40;;
80372;SDS011;69684;48.106;11.538;2023-05-10T05:13:46;0.68;;;0.20;;
80372;SDS011;69684;48.106;11.538;2023-05-10T05:16:12;1.10;;;0.55;;
80372;SDS011;69684;48.106;11.538;2023-05-10T05:18:38;0.20;;;0.20;;
80372;SDS011;69684;48.106;11.538;2023-05-10T05:21:13;1.48;;;0.30;;
80372;SDS011;69684;48.106;11.538;2023-05-10T05:23:40;0.70;;;0.20;;
80372;SDS011;69684;48.106;11.538;2023-05-10T05:26:16;0.77;;;0.30;;
80372;SDS011;69684;48.106;11.538;2023-05-10T05:28:47;0.20;;;0.20;;
80372;SDS011;69684;48.106;11.538;2023-05-10T05:31:22;0.20;;;0.20;;
80372;SDS011;69684;48.106;11.538;2023-05-10T05:33:48;1.02;;;0.50;;
80372;SDS011;69684;48.106;11.538;2023-05-10T05:36:24;0.30;;;0.30;;
80372;SDS011;69684;48.106;11.538;2023-05-10T05:38:50;0.85;;;0.30;;
80372;SDS011;69684;48.106;11.538;2023-05-10T05:41:19;0.20;;;0.20;;
80372;SDS011;69684;48.106;11.538;2023-05-10T05:43:49;0.73;;;0.28;;
80372;SDS011;69684;48.106;11.538;2023-05-10T05:46:15;0.20;;;0.20;;
80372;SDS011;69684;48.106;11.538;2023-05-10T05:48:41;0.30;;;0.20;;
80372;SDS011;69684;48.106;11.538;2023-05-10T05:51:07;0.38;;;0.30;;
80372;SDS011;69684;48.106;11.538;2023-05-10T05:53:33;0.40;;;0.30;;
80372;SDS011;69684;48.106;11.538;2023-05-10T05:55:59;0.68;;;0.50;;
80372;SDS011;69684;48.106;11.538;2023-05-10T05:58:25;1.42;;;0.40;;
80372;SDS011;69684;48.106;11.538;2023-05-10T06:00:52;0.80;;;0.30;;
80372;SDS011;69684;48.106;11.538;2023-05-10T06:03:20;1.80;;;0.35;;
80372;SDS011;69684;48.106;11.538;2023-05-10T06:05:46;0.88;;;0.40;;
80372;SDS011;69684;48.106;11.538;2023-05-10T06:08:12;0.63;;;0.40;;
80372;SDS011;69684;48.106;11.538;2023-05-10T06:10:38;0.47;;;0.32;;
80372;SDS011;69684;48.106;11.538;2023-05-10T06:13:04;0.98;;;0.40;;
80372;SDS011;69684;48.106;11.538;2023-05-10T06:15:30;0.20;;;0.20;;
80372;SDS011;69684;48.106;11.538;2023-05-10T06:17:57;0.57;;;0.40;;
80372;SDS011;69684;48.106;11.538;2023-05-10T06:20:26;0.70;;;0.40;;
80372;SDS011;69684;48.106;11.538;2023-05-10T06:22:56;1.02;;;0.40;;
80372;SDS011;69684;48.106;11.538;2023-05-10T06:25:22;2.90;;;0.77;;
80372;SDS011;69684;48.106;11.538;2023-05-10T06:27:56;2.22;;;0.50;;
80372;SDS011;69684;48.106;11.538;2023-05-10T06:30:23;0.40;;;0.40;;
80372;SDS011;69684;48.106;11.538;2023-05-10T06:32:55;0.60;;;0.40;;
80372;SDS011;69684;48.106;11.538;2023-05-10T06:35:21;0.95;;;0.32;;
80372;SDS011;69684;48.106;11.538;2023-05-10T06:37:50;0.35;;;0.28;;
80372;SDS011;69684;48.106;11.538;2023-05-10T06:40:16;0.85;;;0.40;;
80372;SDS011;69684;48.106;11.538;2023-05-10T06:42:45;0.50;;;0.47;;
80372;SDS011;69684;48.106;11.538;2023-05-10T06:45:11;1.30;;;0.50;;
80372;SDS011;69684;48.106;11.538;2023-05-10T06:47:37;1.42;;;0.38;;
80372;SDS011;69684;48.106;11.538;2023-05-10T06:50:12;0.77;;;0.50;;
80372;SDS011;69684;48.106;11.538;2023-05-10T06:52:41;0.85;;;0.30;;
80372;SDS011;69684;48.106;11.538;2023-05-10T06:55:07;0.50;;;0.50;;
80372;SDS011;69684;48.106;11.538;2023-05-10T06:57:41;0.75;;;0.40;;
80372;SDS011;69684;48.106;11.538;2023-05-10T07:00:09;1.17;;;0.50;;
80372;SDS011;69684;48.106;11.538;2023-05-10T07:02:35;0.90;;;0.63;;
80372;SDS011;69684;48.106;11.538;2023-05-10T07:05:04;0.40;;;0.40;;
80372;SDS011;69684;48.106;11.538;2023-05-10T07:07:30;0.55;;;0.40;;
80372;SDS011;69684;48.106;11.538;2023-05-10T07:09:56;0.55;;;0.40;;
80372;SDS011;69684;48.106;11.538;2023-05-10T07:12:25;1.25;;;0.57;;
80372;SDS011;69684;48.106;11.538;2023-05-10T07:14:51;2.67;;;0.60;;
80372;SDS011;69684;48.106;11.538;2023-05-10T07:17:17;0.82;;;0.77;;
80372;SDS011;69684;48.106;11.538;2023-05-10T07:19:43;1.10;;;0.70;;
80372;SDS011;69684;48.106;11.538;2023-05-10T07:22:12;5.57;;;0.65;;
80372;SDS011;69684;48.106;11.538;2023-05-10T07:24:38;0.63;;;0.52;;
80372;SDS011;69684;48.106;11.538;2023-05-10T07:27:04;0.52;;;0.52;;
80372;SDS011;69684;48.106;11.538;2023-05-10T07:29:30;0.55;;;0.50;;
80372;SDS011;69684;48.106;11.538;2023-05-10T07:31:56;0.50;;;0.50;;
80372;SDS011;69684;48.106;11.538;2023-05-10T07:34:22;0.90;;;0.70;;
80372;SDS011;69684;48.106;11.538;2023-05-10T07:36:48;1.02;;;0.60;;
80372;SDS011;69684;48.106;11.538;2023-05-10T07:39:14;0.40;;;0.40;;
80372;SDS011;69684;48.106;11.538;2023-05-10T07:41:40;0.63;;;0.60;;
80372;SDS011;69684;48.106;11.538;2023-05-10T07:44:06;1.38;;;0.63;;
80372;SDS011;69684;48.106;11.538;2023-05-10T07:46:32;0.52;;;0.40;;
80372;SDS011;69684;48.106;11.538;2023-05-10T07:48:58;0.80;;;0.80;;
80372;SDS011;69684;48.106;11.538;2023-05-10T07:51:24;1.85;;;0.65;;
80372;SDS011;69684;48.106;11.538;2023-05-10T07:53:50;1.40;;;0.68;;
80372;SDS011;69684;48.106;11.538;2023-05-10T07:56:20;0.40;;;0.40;;
80372;SDS011;69684;48.106;11.538;2023-05-10T07:58:46;0.55;;;0.52;;
80372;SDS011;69684;48.106;11.538;2023-05-10T08:01:12;0.70;;;0.60;;
80372;SDS011;69684;48.106;11.538;2023-05-10T08:03:38;0.70;;;0.70;;
80372;SDS011;69684;48.106;11.538;2023-05-10T08:06:04;0.60;;;0.50;;
80372;SDS011;69684;48.106;11.538;2023-05-10T08:08:30;0.90;;;0.50;;
80372;SDS011;69684;48.106;11.538;2023-05-10T08:10:56;1.25;;;0.60;;
80372;SDS011;69684;48.106;11.538;2023-05-10T08:13:22;2.75;;;0.90;;
80372;SDS011;69684;48.106;11.538;2023-05-10T08:15:48;0.50;;;0.50;;
80372;SDS011;69684;48.106;11.538;2023-05-10T08:18:17;0.60;;;0.60;;
80372;SDS011;69684;48.106;11.538;2023-05-10T08:20:43;0.93;;;0.40;;
80372;SDS011;69684;48.106;11.538;2023-05-10T08:23:09;0.60;;;0.60;;
80372;SDS011;69684;48.106;11.538;2023-05-10T08:25:36;0.60;;;0.60;;
80372;SDS011;69684;48.106;11.538;2023-05-10T08:28:02;0.60;;;0.50;;
80372;SDS011;69684;48.106;11.538;2023-05-10T08:30:28;1.38;;;0.75;;
80372;SDS011;69684;48.106;11.538;2023-05-10T08:32:54;0.60;;;0.40;;
80372;SDS011;69684;48.106;11.538;2023-05-10T08:35:20;0.52;;;0.40;;
80372;SDS011;69684;48.106;11.538;2023-05-10T08:37:46;2.05;;;0.45;;
80372;SDS011;69684;48.106;11.538;2023-05-10T08:40:12;0.85;;;0.40;;
80372;SDS011;69684;48.106;11.538;2023-05-10T08:42:39;1.27;;;0.38;;
80372;SDS011;69684;48.106;11.538;2023-05-10T08:45:06;1.10;;;0.40;;
80372;SDS011;69684;48.106;11.538;2023-05-10T08:47:33;0.82;;;0.40;;
80372;SDS011;69684;48.106;11.538;2023-05-10T08:50:00;0.50;;;0.50;;
80372;SDS011;69684;48.106;11.538;2023-05-10T08:52:28;1.75;;;0.63;;
80372;SDS011;69684;48.106;11.538;2023-05-10T08:54:55;1.15;;;0.63;;
80372;SDS011;69684;48.106;11.538;2023-05-10T08:57:22;0.82;;;0.40;;
80372;SDS011;69684;48.106;11.538;2023-05-10T08:59:48;0.50;;;0.50;;
80372;SDS011;69684;48.106;11.538;2023-05-10T09:02:14;0.70;;;0.52;;
80372;SDS011;69684;48.106;11.538;2023-05-10T09:04:40;1.05;;;0.60;;
80372;SDS011;69684;48.106;11.538;2023-05-10T09:07:06;0.60;;;0.57;;
80372;SDS011;69684;48.106;11.538;2023-05-10T09:09:32;1.83;;;0.40;;
80372;SDS011;69684;48.106;11.538;2023-05-10T09:11:59;0.75;;;0.40;;
80372;SDS011;69684;48.106;11.538;2023-05-10T09:14:25;0.43;;;0.43;;
80372;SDS011;69684;48.106;11.538;2023-05-10T09:16:51;0.52;;;0.52;;
80372;SDS011;69684;48.106;11.538;2023-05-10T09:19:19;1.13;;;0.40;;
80372;SDS011;69684;48.106;11.538;2023-05-10T09:21:45;0.73;;;0.40;;
80372;SDS011;69684;48.106;11.538;2023-05-10T09:24:11;0.43;;;0.30;;
80372;SDS011;69684;48.106;11.538;2023-05-10T09:26:47;0.65;;;0.40;;
80372;SDS011;69684;48.106;11.538;2023-05-10T09:29:13;0.73;;;0.40;;
80372;SDS011;69684;48.106;11.538;2023-05-10T09:31:50;1.25;;;0.60;;
80372;SDS011;69684;48.106;11.538;2023-05-10T09:34:20;1.02;;;0.40;;
80372;SDS011;69684;48.106;11.538;2023-05-10T09:36:53;0.40;;;0.32;;
80372;SDS011;69684;48.106;11.538;2023-05-10T09:39:20;0.85;;;0.80;;
80372;SDS011;69684;48.106;11.538;2023-05-10T09:41:46;0.50;;;0.50;;
80372;SDS011;69684;48.106;11.538;2023-05-10T09:44:16;0.90;;;0.40;;
80372;SDS011;69684;48.106;11.538;2023-05-10T09:46:48;0.63;;;0.40;;
80372;SDS011;69684;48.106;11.538;2023-05-10T09:49:14;0.40;;;0.40;;
80372;SDS011;69684;48.106;11.538;2023-05-10T09:51:40;0.77;;;0.60;;
80372;SDS011;69684;48.106;11.538;2023-05-10T09:56:35;0.60;;;0.45;;
80372;SDS011;69684;48.106;11.538;2023-05-10T09:59:03;0.88;;;0.70;;
80372;SDS011;69684;48.106;11.538;2023-05-10T10:01:30;0.50;;;0.50;;
80372;SDS011;69684;48.106;11.538;2023-05-10T10:03:56;1.23;;;0.60;;
80372;SDS011;69684;48.106;11.538;2023-05-10T10:06:23;0.47;;;0.47;;
80372;SDS011;69684;48.106;11.538;2023-05-10T10:08:49;0.40;;;0.40;;
80372;SDS011;69684;48.106;11.538;2023-05-10T10:11:16;1.30;;;0.82;;
80372;SDS011;69684;48.106;11.538;2023-05-10T10:13:42;0.52;;;0.52;;
80372;SDS011;69684;48.106;11.538;2023-05-10T10:16:08;1.20;;;0.68;;
80372;SDS011;69684;48.106;11.538;2023-05-10T10:18:35;1.25;;;0.60;;
80372;SDS011;69684;48.106;11.538;2023-05-10T10:21:05;1.27;;;0.73;;
80372;SDS011;69684;48.106;11.538;2023-05-10T10:23:34;0.45;;;0.30;;
80372;SDS011;69684;48.106;11.538;2023-05-10T10:26:00;0.70;;;0.70;;
80372;SDS011;69684;48.106;11.538;2023-05-10T10:28:33;0.90;;;0.77;;
80372;SDS011;69684;48.106;11.538;2023-05-10T10:31:03;0.70;;;0.70;;
80372;SDS011;69684;48.106;11.538;2023-05-10T10:33:51;0.80;;;0.80;;
80372;SDS011;69684;48.106;11.538;2023-05-10T10:36:20;1.00;;;0.90;;
80372;SDS011;69684;48.106;11.538;2023-05-10T10:49:25;1.50;;;0.70;;
80372;SDS011;69684;48.106;11.538;2023-05-10T10:54:36;0.82;;;0.57;;
80372;SDS011;69684;48.106;11.538;2023-05-10T10:57:12;0.80;;;0.55;;
80372;SDS011;69684;48.106;11.538;2023-05-10T10:59:41;0.60;;;0.50;;
80372;SDS011;69684;48.106;11.538;2023-05-10T11:02:08;1.63;;;0.70;;
80372;SDS011;69684;48.106;11.538;2023-05-10T11:04:41;1.90;;;0.95;;
80372;SDS011;69684;48.106;11.538;2023-05-10T11:07:17;11.10;;;1.30;;
80372;SDS011;69684;48.106;11.538;2023-05-10T11:09:44;1.90;;;0.80;;
80372;SDS011;69684;48.106;11.538;2023-05-10T11:12:11;1.27;;;0.90;;
80372;SDS011;69684;48.106;11.538;2023-05-10T11:14:37;2.40;;;1.08;;
80372;SDS011;69684;48.106;11.538;2023-05-10T11:17:21;1.63;;;0.88;;
80372;SDS011;69684;48.106;11.538;2023-05-10T11:20:06;2.95;;;1.20;;
80372;SDS011;69684;48.106;11.538;2023-05-10T11:22:48;2.65;;;1.00;;
80372;SDS011;69684;48.106;11.538;2023-05-10T11:25:15;4.32;;;1.17;;
80372;SDS011;69684;48.106;11.538;2023-05-10T11:27:41;3.30;;;0.80;;
80372;SDS011;69684;48.106;11.538;2023-05-10T11:30:07;0.90;;;0.57;;
80372;SDS011;69684;48.106;11.538;2023-05-10T11:32:36;1.10;;;0.60;;
80372;SDS011;69684;48.106;11.538;2023-05-10T11:35:09;1.40;;;0.60;;
80372;SDS011;69684;48.106;11.538;2023-05-10T11:37:36;1.08;;;0.60;;
80372;SDS011;69684;48.106;11.538;2023-05-10T11:40:04;2.33;;;0.90;;
80372;SDS011;69684;48.106;11.538;2023-05-10T11:42:30;1.73;;;1.00;;
80372;SDS011;69684;48.106;11.538;2023-05-10T11:44:56;2.90;;;1.30;;
80372;SDS011;69684;48.106;11.538;2023-05-10T11:47:22;1.98;;;0.90;;
80372;SDS011;69684;48.106;11.538;2023-05-10T11:49:48;2.67;;;1.23;;
80372;SDS011;69684;48.106;11.538;2023-05-10T11:52:15;2.40;;;0.88;;
80372;SDS011;69684;48.106;11.538;2023-05-10T11:54:44;4.68;;;0.88;;
80372;SDS011;69684;48.106;11.538;2023-05-10T11:57:11;0.88;;;0.57;;
80372;SDS011;69684;48.106;11.538;2023-05-10T11:59:37;1.77;;;0.68;;
80372;SDS011;69684;48.106;11.538;2023-05-10T12:02:03;1.17;;;0.60;;
80372;SDS011;69684;48.106;11.538;2023-05-10T12:04:29;2.40;;;0.60;;
80372;SDS011;69684;48.106;11.538;2023-05-10T12:06:55;1.17;;;0.55;;
80372;SDS011;69684;48.106;11.538;2023-05-10T12:09:21;0.75;;;0.57;;
80372;SDS011;69684;48.106;11.538;2023-05-10T12:11:47;0.68;;;0.50;;
80372;SDS011;69684;48.106;11.538;2023-05-10T12:14:13;0.57;;;0.50;;
80372;SDS011;69684;48.106;11.538;2023-05-10T12:16:40;1.67;;;0.60;;
80372;SDS011;69684;48.106;11.538;2023-05-10T12:19:08;1.85;;;0.75;;
80372;SDS011;69684;48.106;11.538;2023-05-10T12:21:34;0.98;;;0.60;;
80372;SDS011;69684;48.106;11.538;2023-05-10T12:24:04;0.85;;;0.50;;
80372;SDS011;69684;48.106;11.538;2023-05-10T12:26:30;1.13;;;0.70;;
80372;SDS011;69684;48.106;11.538;2023-05-10T12:29:15;1.38;;;0.98;;
80372;SDS011;69684;48.106;11.538;2023-05-10T12:34:26;1.23;;;0.70;;
80372;SDS011;69684;48.106;11.538;2023-05-10T12:36:53;1.10;;;0.60;;
80372;SDS011;69684;48.106;11.538;2023-05-10T12:39:19;2.55;;;0.80;;
80372;SDS011;69684;48.106;11.538;2023-05-10T12:41:45;2.67;;;0.90;;
80372;SDS011;69684;48.106;11.538;2023-05-10T12:44:11;5.15;;;0.80;;
80372;SDS011;69684;48.106;11.538;2023-05-10T12:46:37;0.90;;;0.52;;
80372;SDS011;69684;48.106;11.538;2023-05-10T12:49:03;2.53;;;0.98;;
80372;SDS011;69684;48.106;11.538;2023-05-10T12:51:29;2.15;;;0.75;;
80372;SDS011;69684;48.106;11.538;2023-05-10T12:53:56;3.38;;;1.67;;
80372;SDS011;69684;48.106;11.538;2023-05-10T12:56:22;2.60;;;1.35;;
80372;SDS011;69684;48.106;11.538;2023-05-10T12:58:48;2.05;;;0.65;;
80372;SDS011;69684;48.106;11.538;2023-05-10T13:01:14;0.90;;;0.63;;
80372;SDS011;69684;48.106;11.538;2023-05-10T13:03:40;2.15;;;0.63;;
80372;SDS011;69684;48.106;11.538;2023-05-10T13:06:07;2.22;;;1.02;;
80372;SDS011;69684;48.106;11.538;2023-05-10T13:08:33;1.63;;;0.98;;
80372;SDS011;69684;48.106;11.538;2023-05-10T13:11:00;1.27;;;0.60;;
80372;SDS011;69684;48.106;11.538;2023-05-10T13:13:26;0.80;;;0.50;;
80372;SDS011;69684;48.106;11.538;2023-05-10T13:15:52;1.58;;;1.17;;
80372;SDS011;69684;48.106;11.538;2023-05-10T13:18:18;2.63;;;0.70;;
80372;SDS011;69684;48.106;11.538;2023-05-10T13:20:44;5.55;;;1.70;;
80372;SDS011;69684;48.106;11.538;2023-05-10T13:23:10;6.03;;;2.47;;
80372;SDS011;69684;48.106;11.538;2023-05-10T13:25:36;4.30;;;1.52;;
80372;SDS011;69684;48.106;11.538;2023-05-10T13:28:02;3.83;;;1.85;;
80372;SDS011;69684;48.106;11.538;2023-05-10T13:30:28;3.38;;;1.40;;
80372;SDS011;69684;48.106;11.538;2023-05-10T13:32:54;2.20;;;1.02;;
80372;SDS011;69684;48.106;11.538;2023-05-10T13:35:20;3.30;;;1.50;;
80372;SDS011;69684;48.106;11.538;2023-05-10T13:37:46;9.25;;;2.80;;
80372;SDS011;69684;48.106;11.538;2023-05-10T13:40:12;6.43;;;2.33;;
80372;SDS011;69684;48.106;11.538;2023-05-10T13:42:40;2.63;;;1.20;;
80372;SDS011;69684;48.106;11.538;2023-05-10T13:45:06;4.28;;;1.05;;
80372;SDS011;69684;48.106;11.538;2023-05-10T13:47:32;1.70;;;1.00;;
80372;SDS011;69684;48.106;11.538;2023-05-10T13:49:58;2.28;;;1.02;;
80372;SDS011;69684;48.106;11.538;2023-05-10T13:52:26;2.20;;;1.05;;
80372;SDS011;69684;48.106;11.538;2023-05-10T13:54:52;2.75;;;0.75;;
80372;SDS011;69684;48.106;11.538;2023-05-10T13:57:20;1.45;;;0.70;;
80372;SDS011;69684;48.106;11.538;2023-05-10T13:59:46;1.40;;;0.75;;
80372;SDS011;69684;48.106;11.538;2023-05-10T14:02:12;1.38;;;0.73;;
80372;SDS011;69684;48.106;11.538;2023-05-10T14:04:38;2.42;;;0.75;;
80372;SDS011;69684;48.106;11.538;2023-05-10T14:07:04;1.27;;;0.90;;
80372;SDS011;69684;48.106;11.538;2023-05-10T14:09:30;1.17;;;0.88;;
80372;SDS011;69684;48.106;11.538;2023-05-10T14:11:56;1.42;;;0.82;;
80372;SDS011;69684;48.106;11.538;2023-05-10T14:14:22;1.15;;;0.75;;
80372;SDS011;69684;48.106;11.538;2023-05-10T14:16:48;1.08;;;0.80;;
80372;SDS011;69684;48.106;11.538;2023-05-10T14:19:14;2.58;;;1.10;;
80372;SDS011;69684;48.106;11.538;2023-05-10T14:21:40;0.77;;;0.50;;
80372;SDS011;69684;48.106;11.538;2023-05-10T14:24:06;0.88;;;0.65;;
80372;SDS011;69684;48.106;11.538;2023-05-10T14:26:32;3.03;;;1.10;;
80372;SDS011;69684;48.106;11.538;2023-05-10T14:28:59;3.20;;;1.15;;
80372;SDS011;69684;48.106;11.538;2023-05-10T14:31:25;1.63;;;0.70;;
80372;SDS011;69684;48.106;11.538;2023-05-10T14:33:52;1.23;;;0.60;;
80372;SDS011;69684;48.106;11.538;2023-05-10T14:36:18;1.02;;;0.40;;
80372;SDS011;69684;48.106;11.538;2023-05-10T14:38:44;0.50;;;0.50;;
80372;SDS011;69684;48.106;11.538;2023-05-10T14:41:09;0.40;;;0.40;;
80372;SDS011;69684;48.106;11.538;2023-05-10T14:43:39;0.85;;;0.43;;
80372;SDS011;69684;48.106;11.538;2023-05-10T14:46:05;1.15;;;0.40;;
80372;SDS011;69684;48.106;11.538;2023-05-10T14:48:31;0.98;;;0.50;;
80372;SDS011;69684;48.106;11.538;2023-05-10T14:50:57;0.50;;;0.30;;
80372;SDS011;69684;48.106;11.538;2023-05-10T14:53:23;0.47;;;0.47;;
80372;SDS011;69684;48.106;11.538;2023-05-10T14:55:49;0.80;;;0.52;;
80372;SDS011;69684;48.106;11.538;2023-05-10T14:58:15;0.40;;;0.40;;
80372;SDS011;69684;48.106;11.538;2023-05-10T15:00:41;1.02;;;0.40;;
80372;SDS011;69684;48.106;11.538;2023-05-10T15:03:08;0.88;;;0.47;;